Terminal Aerodrome Forecast
Issued by NWS

Home | Current Version | Previous Version | Text Only | Print | Product List | Glossary On
Versions: 1 2 3 4 5 6 7 8 9 10 11 12 13 14 15
000
FTUS42 KTBW 211945 AAA
TAFPIE
TAF AMD
KPIE 211945Z 2120/2218 32008KT P6SM VCTS SCT030CB SCT250
      TEMPO 2120/2121 5SM TSRA SCT020CB BKN030
     FM212100 26008KT P6SM VCTS FEW030CB BKN100
     FM220200 20004KT P6SM SCT060 BKN250
     FM221500 17005KT P6SM VCTS SCT025CB BKN250=

USA.gov is the U.S. government's official web portal to all federal, state and local government web resources and services.